sensor_id;sensor_type;location;lat;lon;timestamp;temperature;humidity
67147;DHT22;54061;52.036;5.558;2022-08-25T00:00:42;23.70;68.30
67147;DHT22;54061;52.036;5.558;2022-08-25T00:03:08;23.70;68.40
67147;DHT22;54061;52.036;5.558;2022-08-25T00:05:34;23.70;68.20
67147;DHT22;54061;52.036;5.558;2022-08-25T00:08:00;23.70;68.40
67147;DHT22;54061;52.036;5.558;2022-08-25T00:10:25;23.60;68.50
67147;DHT22;54061;52.036;5.558;2022-08-25T00:12:51;23.50;68.40
67147;DHT22;54061;52.036;5.558;2022-08-25T00:15:16;23.50;69.00
67147;DHT22;54061;52.036;5.558;2022-08-25T00:17:42;23.40;69.50
67147;DHT22;54061;52.036;5.558;2022-08-25T00:20:07;23.20;73.00
67147;DHT22;54061;52.036;5.558;2022-08-25T00:22:36;23.00;70.60
67147;DHT22;54061;52.036;5.558;2022-08-25T00:25:01;23.10;70.30
67147;DHT22;54061;52.036;5.558;2022-08-25T00:27:27;23.10;70.30
67147;DHT22;54061;52.036;5.558;2022-08-25T00:29:52;23.10;71.00
67147;DHT22;54061;52.036;5.558;2022-08-25T00:32:18;23.00;75.00
67147;DHT22;54061;52.036;5.558;2022-08-25T00:34:43;22.80;77.50
67147;DHT22;54061;52.036;5.558;2022-08-25T00:37:09;22.50;79.00
67147;DHT22;54061;52.036;5.558;2022-08-25T00:39:35;22.40;76.70
67147;DHT22;54061;52.036;5.558;2022-08-25T00:42:01;22.30;78.40
67147;DHT22;54061;52.036;5.558;2022-08-25T00:44:28;22.30;76.00
67147;DHT22;54061;52.036;5.558;2022-08-25T00:46:55;22.20;78.20
67147;DHT22;54061;52.036;5.558;2022-08-25T00:51:50;22.20;75.50
67147;DHT22;54061;52.036;5.558;2022-08-25T00:54:19;22.30;74.70
67147;DHT22;54061;52.036;5.558;2022-08-25T00:56:46;22.40;73.90
67147;DHT22;54061;52.036;5.558;2022-08-25T00:59:12;22.40;73.80
67147;DHT22;54061;52.036;5.558;2022-08-25T01:01:38;22.50;73.00
67147;DHT22;54061;52.036;5.558;2022-08-25T01:04:04;22.60;72.60
67147;DHT22;54061;52.036;5.558;2022-08-25T01:06:29;22.60;72.50
67147;DHT22;54061;52.036;5.558;2022-08-25T01:08:58;22.70;72.30
67147;DHT22;54061;52.036;5.558;2022-08-25T01:11:23;22.70;73.00
67147;DHT22;54061;52.036;5.558;2022-08-25T01:13:53;22.60;77.70
67147;DHT22;54061;52.036;5.558;2022-08-25T01:16:19;22.30;75.50
67147;DHT22;54061;52.036;5.558;2022-08-25T01:18:52;22.20;74.20
67147;DHT22;54061;52.036;5.558;2022-08-25T01:21:18;22.30;74.10
67147;DHT22;54061;52.036;5.558;2022-08-25T01:23:45;22.30;73.80
67147;DHT22;54061;52.036;5.558;2022-08-25T01:26:13;22.40;73.40
67147;DHT22;54061;52.036;5.558;2022-08-25T01:28:39;22.50;73.00
67147;DHT22;54061;52.036;5.558;2022-08-25T01:31:25;22.50;73.00
67147;DHT22;54061;52.036;5.558;2022-08-25T01:33:50;22.50;74.10
67147;DHT22;54061;52.036;5.558;2022-08-25T01:36:20;22.40;73.60
67147;DHT22;54061;52.036;5.558;2022-08-25T01:38:45;22.30;77.00
67147;DHT22;54061;52.036;5.558;2022-08-25T01:41:11;22.20;78.90
67147;DHT22;54061;52.036;5.558;2022-08-25T01:43:37;22.10;78.80
67147;DHT22;54061;52.036;5.558;2022-08-25T01:46:03;22.10;76.90
67147;DHT22;54061;52.036;5.558;2022-08-25T01:48:28;22.10;77.30
67147;DHT22;54061;52.036;5.558;2022-08-25T01:50:53;22.10;80.50
67147;DHT22;54061;52.036;5.558;2022-08-25T01:53:25;22.00;81.20
67147;DHT22;54061;52.036;5.558;2022-08-25T01:55:51;22.00;80.40
67147;DHT22;54061;52.036;5.558;2022-08-25T01:58:20;22.00;80.40
67147;DHT22;54061;52.036;5.558;2022-08-25T02:00:47;22.00;79.80
67147;DHT22;54061;52.036;5.558;2022-08-25T02:03:12;22.00;79.00
67147;DHT22;54061;52.036;5.558;2022-08-25T02:05:38;22.00;78.10
67147;DHT22;54061;52.036;5.558;2022-08-25T02:08:03;22.10;76.60
67147;DHT22;54061;52.036;5.558;2022-08-25T02:10:29;22.20;74.80
67147;DHT22;54061;52.036;5.558;2022-08-25T02:12:55;22.20;76.10
67147;DHT22;54061;52.036;5.558;2022-08-25T02:15:20;22.30;74.70
67147;DHT22;54061;52.036;5.558;2022-08-25T02:17:46;22.30;77.20
67147;DHT22;54061;52.036;5.558;2022-08-25T02:20:11;22.20;78.10
67147;DHT22;54061;52.036;5.558;2022-08-25T02:22:36;22.20;79.20
67147;DHT22;54061;52.036;5.558;2022-08-25T02:25:02;22.10;79.10
67147;DHT22;54061;52.036;5.558;2022-08-25T02:27:28;22.20;76.50
67147;DHT22;54061;52.036;5.558;2022-08-25T02:29:53;22.10;76.30
67147;DHT22;54061;52.036;5.558;2022-08-25T02:32:19;22.20;76.70
67147;DHT22;54061;52.036;5.558;2022-08-25T02:34:44;22.20;75.50
67147;DHT22;54061;52.036;5.558;2022-08-25T02:37:10;22.20;75.20
67147;DHT22;54061;52.036;5.558;2022-08-25T02:39:35;22.20;73.50
67147;DHT22;54061;52.036;5.558;2022-08-25T02:42:01;22.20;72.20
67147;DHT22;54061;52.036;5.558;2022-08-25T02:44:26;22.30;71.40
67147;DHT22;54061;52.036;5.558;2022-08-25T02:46:51;22.40;71.20
67147;DHT22;54061;52.036;5.558;2022-08-25T02:49:17;22.50;70.30
67147;DHT22;54061;52.036;5.558;2022-08-25T02:51:42;22.60;69.60
67147;DHT22;54061;52.036;5.558;2022-08-25T02:54:08;22.60;70.10
67147;DHT22;54061;52.036;5.558;2022-08-25T02:56:34;22.50;69.40
67147;DHT22;54061;52.036;5.558;2022-08-25T02:58:59;22.50;69.90
67147;DHT22;54061;52.036;5.558;2022-08-25T03:01:26;22.50;71.40
67147;DHT22;54061;52.036;5.558;2022-08-25T03:03:51;22.50;70.90
67147;DHT22;54061;52.036;5.558;2022-08-25T03:06:18;22.40;70.00
67147;DHT22;54061;52.036;5.558;2022-08-25T03:08:44;22.40;70.50
67147;DHT22;54061;52.036;5.558;2022-08-25T03:11:09;22.30;69.70
67147;DHT22;54061;52.036;5.558;2022-08-25T03:13:35;22.30;69.90
67147;DHT22;54061;52.036;5.558;2022-08-25T03:16:01;22.30;70.30
67147;DHT22;54061;52.036;5.558;2022-08-25T03:18:27;22.30;68.60
67147;DHT22;54061;52.036;5.558;2022-08-25T03:20:53;22.30;67.90
67147;DHT22;54061;52.036;5.558;2022-08-25T03:23:18;22.30;68.30
67147;DHT22;54061;52.036;5.558;2022-08-25T03:25:44;22.30;67.30
67147;DHT22;54061;52.036;5.558;2022-08-25T03:28:28;22.30;68.60
67147;DHT22;54061;52.036;5.558;2022-08-25T03:30:55;22.20;69.00
67147;DHT22;54061;52.036;5.558;2022-08-25T03:33:21;22.20;68.90
67147;DHT22;54061;52.036;5.558;2022-08-25T03:35:46;22.10;68.20
67147;DHT22;54061;52.036;5.558;2022-08-25T03:38:12;22.10;67.20
67147;DHT22;54061;52.036;5.558;2022-08-25T03:40:37;22.10;67.50
67147;DHT22;54061;52.036;5.558;2022-08-25T03:43:03;22.10;66.20
67147;DHT22;54061;52.036;5.558;2022-08-25T03:45:29;22.10;66.90
67147;DHT22;54061;52.036;5.558;2022-08-25T03:47:54;22.10;65.90
67147;DHT22;54061;52.036;5.558;2022-08-25T03:50:20;22.10;66.00
67147;DHT22;54061;52.036;5.558;2022-08-25T03:52:50;22.10;66.50
67147;DHT22;54061;52.036;5.558;2022-08-25T03:55:15;22.00;65.50
67147;DHT22;54061;52.036;5.558;2022-08-25T03:57:41;22.00;66.50
67147;DHT22;54061;52.036;5.558;2022-08-25T04:00:07;22.00;66.40
67147;DHT22;54061;52.036;5.558;2022-08-25T04:02:33;21.90;65.90
67147;DHT22;54061;52.036;5.558;2022-08-25T04:04:58;21.90;65.50
67147;DHT22;54061;52.036;5.558;2022-08-25T04:07:24;21.90;65.90
67147;DHT22;54061;52.036;5.558;2022-08-25T04:09:49;21.90;65.40
67147;DHT22;54061;52.036;5.558;2022-08-25T04:12:15;21.80;65.30
67147;DHT22;54061;52.036;5.558;2022-08-25T04:14:40;21.80;65.20
67147;DHT22;54061;52.036;5.558;2022-08-25T04:17:06;21.80;65.40
67147;DHT22;54061;52.036;5.558;2022-08-25T04:19:32;21.80;65.10
67147;DHT22;54061;52.036;5.558;2022-08-25T04:21:58;21.90;65.30
67147;DHT22;54061;52.036;5.558;2022-08-25T04:24:23;21.80;64.90
67147;DHT22;54061;52.036;5.558;2022-08-25T04:26:49;21.90;65.70
67147;DHT22;54061;52.036;5.558;2022-08-25T04:29:16;21.80;65.10
67147;DHT22;54061;52.036;5.558;2022-08-25T04:31:43;21.80;65.20
67147;DHT22;54061;52.036;5.558;2022-08-25T04:34:08;21.80;65.00
67147;DHT22;54061;52.036;5.558;2022-08-25T04:36:35;21.80;65.00
67147;DHT22;54061;52.036;5.558;2022-08-25T04:39:01;21.80;65.00
67147;DHT22;54061;52.036;5.558;2022-08-25T04:41:26;21.90;65.00
67147;DHT22;54061;52.036;5.558;2022-08-25T04:43:54;21.80;65.00
67147;DHT22;54061;52.036;5.558;2022-08-25T04:46:21;21.70;65.10
67147;DHT22;54061;52.036;5.558;2022-08-25T04:48:48;21.70;65.40
67147;DHT22;54061;52.036;5.558;2022-08-25T04:51:18;21.70;65.30
67147;DHT22;54061;52.036;5.558;2022-08-25T04:53:43;21.70;65.50
67147;DHT22;54061;52.036;5.558;2022-08-25T04:56:10;21.60;65.50
67147;DHT22;54061;52.036;5.558;2022-08-25T04:58:36;21.60;65.50
67147;DHT22;54061;52.036;5.558;2022-08-25T05:01:03;21.60;65.50
67147;DHT22;54061;52.036;5.558;2022-08-25T05:03:29;21.70;65.70
67147;DHT22;54061;52.036;5.558;2022-08-25T05:05:55;21.70;65.60
67147;DHT22;54061;52.036;5.558;2022-08-25T05:08:20;21.70;65.50
67147;DHT22;54061;52.036;5.558;2022-08-25T05:10:46;21.70;65.20
67147;DHT22;54061;52.036;5.558;2022-08-25T05:13:11;21.70;65.00
67147;DHT22;54061;52.036;5.558;2022-08-25T05:15:37;21.80;65.30
67147;DHT22;54061;52.036;5.558;2022-08-25T05:18:17;21.80;64.40
67147;DHT22;54061;52.036;5.558;2022-08-25T05:20:43;21.80;64.40
67147;DHT22;54061;52.036;5.558;2022-08-25T05:23:09;21.80;64.20
67147;DHT22;54061;52.036;5.558;2022-08-25T05:25:34;21.80;63.80
67147;DHT22;54061;52.036;5.558;2022-08-25T05:28:00;21.80;63.70
67147;DHT22;54061;52.036;5.558;2022-08-25T05:30:26;21.80;63.60
67147;DHT22;54061;52.036;5.558;2022-08-25T05:32:52;21.80;63.40
67147;DHT22;54061;52.036;5.558;2022-08-25T05:35:17;21.80;63.50
67147;DHT22;54061;52.036;5.558;2022-08-25T05:37:44;21.80;64.10
67147;DHT22;54061;52.036;5.558;2022-08-25T05:40:10;21.80;63.80
67147;DHT22;54061;52.036;5.558;2022-08-25T05:42:35;21.80;64.10
67147;DHT22;54061;52.036;5.558;2022-08-25T05:45:02;21.80;63.80
67147;DHT22;54061;52.036;5.558;2022-08-25T05:47:28;21.80;64.40
67147;DHT22;54061;52.036;5.558;2022-08-25T05:49:53;21.90;64.00
67147;DHT22;54061;52.036;5.558;2022-08-25T05:52:19;21.90;63.90
67147;DHT22;54061;52.036;5.558;2022-08-25T05:54:44;21.90;64.20
67147;DHT22;54061;52.036;5.558;2022-08-25T05:57:10;22.00;64.00
67147;DHT22;54061;52.036;5.558;2022-08-25T05:59:36;22.00;63.60
67147;DHT22;54061;52.036;5.558;2022-08-25T06:02:01;22.10;63.60
67147;DHT22;54061;52.036;5.558;2022-08-25T06:04:46;22.20;63.80
67147;DHT22;54061;52.036;5.558;2022-08-25T06:07:11;22.20;63.40
67147;DHT22;54061;52.036;5.558;2022-08-25T06:09:40;22.30;63.00
67147;DHT22;54061;52.036;5.558;2022-08-25T06:12:06;22.40;63.80
67147;DHT22;54061;52.036;5.558;2022-08-25T06:14:31;22.40;63.10
67147;DHT22;54061;52.036;5.558;2022-08-25T06:16:57;22.50;63.40
67147;DHT22;54061;52.036;5.558;2022-08-25T06:19:24;22.60;62.90
67147;DHT22;54061;52.036;5.558;2022-08-25T06:21:54;22.70;62.60
67147;DHT22;54061;52.036;5.558;2022-08-25T06:24:19;22.80;62.80
67147;DHT22;54061;52.036;5.558;2022-08-25T06:26:45;22.90;62.80
67147;DHT22;54061;52.036;5.558;2022-08-25T06:29:11;22.90;62.50
67147;DHT22;54061;52.036;5.558;2022-08-25T06:31:38;23.00;62.40
67147;DHT22;54061;52.036;5.558;2022-08-25T06:34:04;23.10;62.20
67147;DHT22;54061;52.036;5.558;2022-08-25T06:36:30;23.20;61.90
67147;DHT22;54061;52.036;5.558;2022-08-25T06:38:56;23.30;61.50
67147;DHT22;54061;52.036;5.558;2022-08-25T06:41:21;23.40;61.10
67147;DHT22;54061;52.036;5.558;2022-08-25T06:43:46;23.40;61.20
67147;DHT22;54061;52.036;5.558;2022-08-25T06:46:17;23.50;59.40
67147;DHT22;54061;52.036;5.558;2022-08-25T06:48:42;23.50;59.60
67147;DHT22;54061;52.036;5.558;2022-08-25T06:51:09;23.50;59.50
67147;DHT22;54061;52.036;5.558;2022-08-25T06:53:34;23.50;59.20
67147;DHT22;54061;52.036;5.558;2022-08-25T06:56:00;23.60;59.00
67147;DHT22;54061;52.036;5.558;2022-08-25T06:58:26;23.70;58.90
67147;DHT22;54061;52.036;5.558;2022-08-25T07:00:51;23.70;59.20
67147;DHT22;54061;52.036;5.558;2022-08-25T07:03:17;23.80;58.80
67147;DHT22;54061;52.036;5.558;2022-08-25T07:05:53;23.80;57.80
67147;DHT22;54061;52.036;5.558;2022-08-25T07:08:19;23.90;57.90
67147;DHT22;54061;52.036;5.558;2022-08-25T07:10:45;23.90;58.10
67147;DHT22;54061;52.036;5.558;2022-08-25T07:13:11;24.00;58.30
67147;DHT22;54061;52.036;5.558;2022-08-25T07:15:37;24.10;58.80
67147;DHT22;54061;52.036;5.558;2022-08-25T07:18:03;24.20;58.00
67147;DHT22;54061;52.036;5.558;2022-08-25T07:20:29;24.30;57.60
67147;DHT22;54061;52.036;5.558;2022-08-25T07:22:55;24.40;57.40
67147;DHT22;54061;52.036;5.558;2022-08-25T07:25:21;24.40;56.70
67147;DHT22;54061;52.036;5.558;2022-08-25T07:27:46;24.40;56.60
67147;DHT22;54061;52.036;5.558;2022-08-25T07:30:12;24.40;56.40
67147;DHT22;54061;52.036;5.558;2022-08-25T07:32:37;24.40;56.50
67147;DHT22;54061;52.036;5.558;2022-08-25T07:35:03;24.50;56.20
67147;DHT22;54061;52.036;5.558;2022-08-25T07:37:41;24.60;56.20
67147;DHT22;54061;52.036;5.558;2022-08-25T07:40:08;24.60;56.20
67147;DHT22;54061;52.036;5.558;2022-08-25T07:42:34;24.70;55.90
67147;DHT22;54061;52.036;5.558;2022-08-25T07:45:00;24.70;55.50
67147;DHT22;54061;52.036;5.558;2022-08-25T07:47:25;24.70;56.00
67147;DHT22;54061;52.036;5.558;2022-08-25T07:49:51;24.80;56.00
67147;DHT22;54061;52.036;5.558;2022-08-25T07:52:16;24.80;56.10
67147;DHT22;54061;52.036;5.558;2022-08-25T07:54:42;24.90;56.60
67147;DHT22;54061;52.036;5.558;2022-08-25T07:57:07;25.00;55.60
67147;DHT22;54061;52.036;5.558;2022-08-25T07:59:33;25.10;55.50
67147;DHT22;54061;52.036;5.558;2022-08-25T08:01:59;25.10;55.90
67147;DHT22;54061;52.036;5.558;2022-08-25T08:04:24;25.30;56.00
67147;DHT22;54061;52.036;5.558;2022-08-25T08:06:50;25.40;56.00
67147;DHT22;54061;52.036;5.558;2022-08-25T08:09:16;25.60;54.40
67147;DHT22;54061;52.036;5.558;2022-08-25T08:11:41;25.50;54.10
67147;DHT22;54061;52.036;5.558;2022-08-25T08:14:09;25.50;54.40
67147;DHT22;54061;52.036;5.558;2022-08-25T08:16:35;25.60;55.20
67147;DHT22;54061;52.036;5.558;2022-08-25T08:19:01;25.80;55.00
67147;DHT22;54061;52.036;5.558;2022-08-25T08:21:29;26.00;54.50
67147;DHT22;54061;52.036;5.558;2022-08-25T08:23:55;26.10;54.00
67147;DHT22;54061;52.036;5.558;2022-08-25T08:26:21;26.20;54.00
67147;DHT22;54061;52.036;5.558;2022-08-25T08:28:47;26.40;53.70
67147;DHT22;54061;52.036;5.558;2022-08-25T08:31:13;26.30;52.70
67147;DHT22;54061;52.036;5.558;2022-08-25T08:33:40;26.30;52.50
67147;DHT22;54061;52.036;5.558;2022-08-25T08:36:09;26.40;52.40
67147;DHT22;54061;52.036;5.558;2022-08-25T08:38:36;26.60;52.60
67147;DHT22;54061;52.036;5.558;2022-08-25T08:41:08;26.70;51.70
67147;DHT22;54061;52.036;5.558;2022-08-25T08:44:11;26.70;50.90
67147;DHT22;54061;52.036;5.558;2022-08-25T08:46:45;26.80;51.40
67147;DHT22;54061;52.036;5.558;2022-08-25T08:49:17;26.90;51.20
67147;DHT22;54061;52.036;5.558;2022-08-25T08:51:51;27.00;51.10
67147;DHT22;54061;52.036;5.558;2022-08-25T08:54:19;27.30;50.80
67147;DHT22;54061;52.036;5.558;2022-08-25T08:56:49;27.60;50.50
67147;DHT22;54061;52.036;5.558;2022-08-25T08:59:25;28.00;51.60
67147;DHT22;54061;52.036;5.558;2022-08-25T09:01:52;28.20;49.30
67147;DHT22;54061;52.036;5.558;2022-08-25T09:04:42;28.60;49.80
67147;DHT22;54061;52.036;5.558;2022-08-25T09:07:18;28.80;50.20
67147;DHT22;54061;52.036;5.558;2022-08-25T09:09:45;29.20;49.60
67147;DHT22;54061;52.036;5.558;2022-08-25T09:12:11;29.70;48.80
67147;DHT22;54061;52.036;5.558;2022-08-25T09:14:45;29.70;46.90
67147;DHT22;54061;52.036;5.558;2022-08-25T09:17:20;29.90;49.30
67147;DHT22;54061;52.036;5.558;2022-08-25T09:22:28;30.40;44.90
67147;DHT22;54061;52.036;5.558;2022-08-25T09:30:09;30.90;50.30
67147;DHT22;54061;52.036;5.558;2022-08-25T09:32:43;31.30;43.70
67147;DHT22;54061;52.036;5.558;2022-08-25T09:35:13;31.10;42.70
67147;DHT22;54061;52.036;5.558;2022-08-25T09:37:40;30.80;43.50
67147;DHT22;54061;52.036;5.558;2022-08-25T09:40:06;30.80;43.70
67147;DHT22;54061;52.036;5.558;2022-08-25T09:42:45;30.90;49.80
67147;DHT22;54061;52.036;5.558;2022-08-25T09:45:12;30.90;44.00
67147;DHT22;54061;52.036;5.558;2022-08-25T09:47:43;31.10;48.20
67147;DHT22;54061;52.036;5.558;2022-08-25T09:50:13;31.10;43.50
67147;DHT22;54061;52.036;5.558;2022-08-25T09:52:39;31.10;45.30
67147;DHT22;54061;52.036;5.558;2022-08-25T10:02:35;31.70;41.60
67147;DHT22;54061;52.036;5.558;2022-08-25T10:05:08;31.90;45.10
67147;DHT22;54061;52.036;5.558;2022-08-25T10:07:47;32.10;40.20
67147;DHT22;54061;52.036;5.558;2022-08-25T10:10:21;32.30;42.20
67147;DHT22;54061;52.036;5.558;2022-08-25T10:12:47;32.20;40.20
67147;DHT22;54061;52.036;5.558;2022-08-25T10:15:16;32.00;43.60
67147;DHT22;54061;52.036;5.558;2022-08-25T10:17:42;32.10;40.50
67147;DHT22;54061;52.036;5.558;2022-08-25T10:20:21;32.10;40.90
67147;DHT22;54061;52.036;5.558;2022-08-25T10:22:47;32.20;43.50
67147;DHT22;54061;52.036;5.558;2022-08-25T10:25:14;32.50;44.00
67147;DHT22;54061;52.036;5.558;2022-08-25T10:30:22;32.90;40.30
67147;DHT22;54061;52.036;5.558;2022-08-25T10:35:17;32.90;40.30
67147;DHT22;54061;52.036;5.558;2022-08-25T10:42:37;32.70;39.10
67147;DHT22;54061;52.036;5.558;2022-08-25T10:50:32;33.20;35.00
67147;DHT22;54061;52.036;5.558;2022-08-25T11:00:30;32.80;36.80
67147;DHT22;54061;52.036;5.558;2022-08-25T11:03:16;32.70;45.20
67147;DHT22;54061;52.036;5.558;2022-08-25T11:05:45;33.10;39.10
67147;DHT22;54061;52.036;5.558;2022-08-25T11:08:15;33.90;41.00
67147;DHT22;54061;52.036;5.558;2022-08-25T11:10:45;34.00;36.20
67147;DHT22;54061;52.036;5.558;2022-08-25T11:13:12;33.80;38.60
67147;DHT22;54061;52.036;5.558;2022-08-25T11:15:50;33.80;34.20
67147;DHT22;54061;52.036;5.558;2022-08-25T11:18:16;33.60;33.90
67147;DHT22;54061;52.036;5.558;2022-08-25T11:20:44;33.50;33.80
67147;DHT22;54061;52.036;5.558;2022-08-25T11:23:24;33.50;34.00
67147;DHT22;54061;52.036;5.558;2022-08-25T11:25:54;33.20;34.40
67147;DHT22;54061;52.036;5.558;2022-08-25T11:28:45;33.20;33.50
67147;DHT22;54061;52.036;5.558;2022-08-25T11:31:11;33.00;35.50
67147;DHT22;54061;52.036;5.558;2022-08-25T11:33:38;33.00;35.90
67147;DHT22;54061;52.036;5.558;2022-08-25T11:36:08;32.80;38.00
67147;DHT22;54061;52.036;5.558;2022-08-25T11:38:48;32.80;36.00
67147;DHT22;54061;52.036;5.558;2022-08-25T11:44:04;32.70;36.40
67147;DHT22;54061;52.036;5.558;2022-08-25T11:46:37;32.80;35.90
67147;DHT22;54061;52.036;5.558;2022-08-25T11:51:51;32.70;35.40
67147;DHT22;54061;52.036;5.558;2022-08-25T11:54:18;32.80;35.40
67147;DHT22;54061;52.036;5.558;2022-08-25T11:56:56;32.80;34.90
67147;DHT22;54061;52.036;5.558;2022-08-25T12:00:34;32.60;34.30
67147;DHT22;54061;52.036;5.558;2022-08-25T12:02:35;32.50;34.90
67147;DHT22;54061;52.036;5.558;2022-08-25T12:05:02;32.60;35.70
67147;DHT22;54061;52.036;5.558;2022-08-25T12:07:56;32.70;36.00
67147;DHT22;54061;52.036;5.558;2022-08-25T12:16:04;32.90;33.90
67147;DHT22;54061;52.036;5.558;2022-08-25T12:23:31;32.90;34.30
67147;DHT22;54061;52.036;5.558;2022-08-25T12:25:59;32.80;34.70
67147;DHT22;54061;52.036;5.558;2022-08-25T12:28:31;32.70;34.80
67147;DHT22;54061;52.036;5.558;2022-08-25T12:31:00;32.70;35.00
67147;DHT22;54061;52.036;5.558;2022-08-25T12:36:01;32.50;34.40
67147;DHT22;54061;52.036;5.558;2022-08-25T12:43:43;32.50;34.30
67147;DHT22;54061;52.036;5.558;2022-08-25T12:51:26;32.80;33.70
67147;DHT22;54061;52.036;5.558;2022-08-25T12:54:00;32.80;34.20
67147;DHT22;54061;52.036;5.558;2022-08-25T12:56:44;32.90;33.90
67147;DHT22;54061;52.036;5.558;2022-08-25T13:07:11;33.10;32.70
67147;DHT22;54061;52.036;5.558;2022-08-25T13:14:41;33.50;33.30
67147;DHT22;54061;52.036;5.558;2022-08-25T13:17:07;33.40;32.50
67147;DHT22;54061;52.036;5.558;2022-08-25T13:19:33;33.20;32.20
67147;DHT22;54061;52.036;5.558;2022-08-25T13:22:00;33.20;33.00
67147;DHT22;54061;52.036;5.558;2022-08-25T13:24:39;33.00;33.70
67147;DHT22;54061;52.036;5.558;2022-08-25T13:27:07;33.20;33.20
67147;DHT22;54061;52.036;5.558;2022-08-25T13:29:34;33.20;32.80
67147;DHT22;54061;52.036;5.558;2022-08-25T13:32:01;33.20;34.30
67147;DHT22;54061;52.036;5.558;2022-08-25T13:34:29;33.20;33.10
67147;DHT22;54061;52.036;5.558;2022-08-25T13:36:59;33.20;33.20
67147;DHT22;54061;52.036;5.558;2022-08-25T13:39:47;33.20;33.30
67147;DHT22;54061;52.036;5.558;2022-08-25T13:42:13;33.40;35.70
67147;DHT22;54061;52.036;5.558;2022-08-25T13:44:39;33.70;35.10
67147;DHT22;54061;52.036;5.558;2022-08-25T13:47:06;33.80;33.00
67147;DHT22;54061;52.036;5.558;2022-08-25T13:49:31;33.80;34.70
67147;DHT22;54061;52.036;5.558;2022-08-25T13:51:57;33.80;33.10
67147;DHT22;54061;52.036;5.558;2022-08-25T13:54:27;33.70;35.40
67147;DHT22;54061;52.036;5.558;2022-08-25T13:56:53;33.70;33.30
67147;DHT22;54061;52.036;5.558;2022-08-25T13:59:30;33.70;35.90
67147;DHT22;54061;52.036;5.558;2022-08-25T14:01:59;33.90;32.30
67147;DHT22;54061;52.036;5.558;2022-08-25T14:15:08;32.80;35.60
67147;DHT22;54061;52.036;5.558;2022-08-25T14:17:35;32.90;33.50
67147;DHT22;54061;52.036;5.558;2022-08-25T14:20:01;32.80;33.10
67147;DHT22;54061;52.036;5.558;2022-08-25T14:22:27;32.80;33.80
67147;DHT22;54061;52.036;5.558;2022-08-25T14:24:52;32.90;34.20
67147;DHT22;54061;52.036;5.558;2022-08-25T14:27:18;33.00;33.70
67147;DHT22;54061;52.036;5.558;2022-08-25T14:29:43;33.00;34.80
67147;DHT22;54061;52.036;5.558;2022-08-25T14:32:09;32.90;33.40
67147;DHT22;54061;52.036;5.558;2022-08-25T14:34:35;32.70;33.10
67147;DHT22;54061;52.036;5.558;2022-08-25T14:37:21;32.80;34.70
67147;DHT22;54061;52.036;5.558;2022-08-25T14:39:46;33.00;35.60
67147;DHT22;54061;52.036;5.558;2022-08-25T14:42:12;33.30;35.80
67147;DHT22;54061;52.036;5.558;2022-08-25T14:44:38;33.50;36.10
67147;DHT22;54061;52.036;5.558;2022-08-25T14:47:04;33.70;36.70
67147;DHT22;54061;52.036;5.558;2022-08-25T14:49:32;33.70;32.70
67147;DHT22;54061;52.036;5.558;2022-08-25T14:52:20;33.70;35.50
67147;DHT22;54061;52.036;5.558;2022-08-25T14:54:44;33.70;33.30
67147;DHT22;54061;52.036;5.558;2022-08-25T14:57:10;33.60;33.20
67147;DHT22;54061;52.036;5.558;2022-08-25T14:59:35;33.40;32.90
67147;DHT22;54061;52.036;5.558;2022-08-25T15:02:01;33.30;33.10
67147;DHT22;54061;52.036;5.558;2022-08-25T15:04:27;33.00;33.50
67147;DHT22;54061;52.036;5.558;2022-08-25T15:06:57;32.80;33.20
67147;DHT22;54061;52.036;5.558;2022-08-25T15:09:23;32.70;33.10
67147;DHT22;54061;52.036;5.558;2022-08-25T15:11:50;32.70;33.40
67147;DHT22;54061;52.036;5.558;2022-08-25T15:14:16;32.70;33.50
67147;DHT22;54061;52.036;5.558;2022-08-25T15:16:53;32.70;33.10
67147;DHT22;54061;52.036;5.558;2022-08-25T15:19:21;32.70;33.60
67147;DHT22;54061;52.036;5.558;2022-08-25T15:21:47;32.70;33.30
67147;DHT22;54061;52.036;5.558;2022-08-25T15:24:14;32.60;34.10
67147;DHT22;54061;52.036;5.558;2022-08-25T15:26:43;32.70;33.70
67147;DHT22;54061;52.036;5.558;2022-08-25T15:29:10;32.70;33.80
67147;DHT22;54061;52.036;5.558;2022-08-25T15:31:36;32.80;34.10
67147;DHT22;54061;52.036;5.558;2022-08-25T15:34:01;32.90;35.80
67147;DHT22;54061;52.036;5.558;2022-08-25T15:36:27;33.10;36.30
67147;DHT22;54061;52.036;5.558;2022-08-25T15:38:52;33.20;36.50
67147;DHT22;54061;52.036;5.558;2022-08-25T15:41:18;33.40;35.30
67147;DHT22;54061;52.036;5.558;2022-08-25T15:43:45;33.40;33.60
67147;DHT22;54061;52.036;5.558;2022-08-25T15:46:10;33.40;36.40
67147;DHT22;54061;52.036;5.558;2022-08-25T15:48:38;33.40;36.80
67147;DHT22;54061;52.036;5.558;2022-08-25T15:51:04;33.60;36.40
67147;DHT22;54061;52.036;5.558;2022-08-25T15:53:29;33.70;36.60
67147;DHT22;54061;52.036;5.558;2022-08-25T15:55:55;33.80;36.80
67147;DHT22;54061;52.036;5.558;2022-08-25T15:58:21;33.70;32.40
67147;DHT22;54061;52.036;5.558;2022-08-25T16:00:47;33.50;32.70
67147;DHT22;54061;52.036;5.558;2022-08-25T16:03:13;33.40;33.10
67147;DHT22;54061;52.036;5.558;2022-08-25T16:05:39;33.30;33.10
67147;DHT22;54061;52.036;5.558;2022-08-25T16:08:05;33.30;36.40
67147;DHT22;54061;52.036;5.558;2022-08-25T16:10:32;33.30;34.60
67147;DHT22;54061;52.036;5.558;2022-08-25T16:12:57;33.20;36.40
67147;DHT22;54061;52.036;5.558;2022-08-25T16:15:23;33.30;34.10
67147;DHT22;54061;52.036;5.558;2022-08-25T16:17:48;33.30;35.80
67147;DHT22;54061;52.036;5.558;2022-08-25T16:20:14;33.30;35.40
67147;DHT22;54061;52.036;5.558;2022-08-25T16:22:40;33.20;34.10
67147;DHT22;54061;52.036;5.558;2022-08-25T16:25:05;33.30;36.40
67147;DHT22;54061;52.036;5.558;2022-08-25T16:27:31;33.20;33.10
67147;DHT22;54061;52.036;5.558;2022-08-25T16:29:56;33.10;34.20
67147;DHT22;54061;52.036;5.558;2022-08-25T16:32:22;32.90;34.20
67147;DHT22;54061;52.036;5.558;2022-08-25T16:34:48;32.80;33.40
67147;DHT22;54061;52.036;5.558;2022-08-25T16:37:13;32.70;36.70
67147;DHT22;54061;52.036;5.558;2022-08-25T16:39:39;32.80;37.10
67147;DHT22;54061;52.036;5.558;2022-08-25T16:42:08;32.90;37.20
67147;DHT22;54061;52.036;5.558;2022-08-25T16:44:33;33.00;37.40
67147;DHT22;54061;52.036;5.558;2022-08-25T16:46:59;33.00;37.70
67147;DHT22;54061;52.036;5.558;2022-08-25T16:49:25;33.00;37.90
67147;DHT22;54061;52.036;5.558;2022-08-25T16:51:51;33.00;37.70
67147;DHT22;54061;52.036;5.558;2022-08-25T16:54:17;33.00;37.50
67147;DHT22;54061;52.036;5.558;2022-08-25T16:57:01;33.00;37.40
67147;DHT22;54061;52.036;5.558;2022-08-25T16:59:26;33.00;38.10
67147;DHT22;54061;52.036;5.558;2022-08-25T17:01:52;33.00;37.90
67147;DHT22;54061;52.036;5.558;2022-08-25T17:04:17;32.90;37.20
67147;DHT22;54061;52.036;5.558;2022-08-25T17:06:43;32.80;38.00